createdAt,value
2019-01-02T00:00:55.937Z,96110.55
2019-01-02T00:03:25.526Z,96107.84
2019-01-02T00:05:56.430Z,96104.24
2019-01-02T00:08:25.647Z,96097.55
2019-01-02T00:10:54.845Z,96104.95
2019-01-02T00:13:24.079Z,96104.17
2019-01-02T00:15:53.285Z,96102.07
2019-01-02T00:18:24.200Z,96096.21
2019-01-02T00:20:53.401Z,96100.21
2019-01-02T00:23:24.301Z,96090.45
2019-01-02T00:25:53.504Z,96109.83
2019-01-02T00:28:23.286Z,96110.97
2019-01-02T00:30:53.609Z,96104.48
2019-01-02T00:33:22.932Z,96099.82
2019-01-02T00:35:52.116Z,96106.09
2019-01-02T00:38:21.324Z,96108.92
2019-01-02T00:40:52.238Z,96126.20
2019-01-02T00:43:21.468Z,96141.41
2019-01-02T00:45:52.745Z,96147.95
2019-01-02T00:48:21.950Z,96148.41
2019-01-02T00:50:51.491Z,96146.41
2019-01-02T00:53:20.673Z,96160.01
2019-01-02T00:55:51.591Z,96172.63
2019-01-02T00:58:20.762Z,96138.41
2019-01-02T01:00:51.695Z,96152.55
2019-01-02T01:03:20.870Z,96140.23
2019-01-02T01:05:51.816Z,96149.86
2019-01-02T01:09:00.408Z,96137.06
2019-01-02T01:11:29.626Z,96134.73
2019-01-02T01:13:59.372Z,96155.02
2019-01-02T01:16:28.576Z,96131.22
2019-01-02T01:18:57.921Z,96147.46
2019-01-02T01:21:27.098Z,96161.84
2019-01-02T01:23:56.374Z,96170.98
2019-01-02T01:26:25.551Z,96162.88
2019-01-02T01:28:54.745Z,96163.12
2019-01-02T01:31:23.952Z,96162.90
2019-01-02T01:33:53.145Z,96179.53
2019-01-02T01:36:24.039Z,96171.44
2019-01-02T01:38:53.222Z,96171.17
2019-01-02T01:41:22.424Z,96177.34
2019-01-02T01:43:53.320Z,96157.91
2019-01-02T01:46:22.523Z,96164.03
2019-01-02T01:48:53.421Z,96175.70
2019-01-02T01:51:22.624Z,96164.73
2019-01-02T01:53:51.809Z,96168.99
2019-01-02T01:56:22.741Z,96162.34
2019-01-02T01:58:51.919Z,96168.22
2019-01-02T02:01:21.395Z,96177.61
2019-01-02T02:03:52.322Z,96186.02
2019-01-02T02:06:21.505Z,96184.30
2019-01-02T02:08:50.713Z,96197.80
2019-01-02T02:11:19.884Z,96177.10
2019-01-02T02:13:49.064Z,96196.32
2019-01-02T02:16:20.002Z,96204.42
2019-01-02T02:18:49.175Z,96195.95
2019-01-02T02:21:18.380Z,96189.37
2019-01-02T02:23:49.278Z,96189.97
2019-01-02T02:26:18.457Z,96182.05
2019-01-02T02:28:49.377Z,96195.38
2019-01-02T02:31:18.655Z,96195.05
2019-01-02T02:36:44.492Z,96205.00
2019-01-02T02:39:15.428Z,96212.95
2019-01-02T02:41:46.321Z,96201.14
2019-01-02T02:44:17.218Z,96210.05
2019-01-02T02:46:48.169Z,96205.39
2019-01-02T02:49:17.341Z,96216.83
2019-01-02T02:51:46.543Z,96227.97
2019-01-02T02:54:17.443Z,96231.81
2019-01-02T02:56:48.343Z,96238.16
2019-01-02T02:59:19.270Z,96236.06
2019-01-02T03:01:50.172Z,96222.92
2019-01-02T03:04:21.096Z,96214.08
2019-01-02T03:06:53.831Z,96238.25
2019-01-02T03:09:23.279Z,96241.16
2019-01-02T03:11:52.469Z,96222.09
2019-01-02T03:14:21.650Z,96227.55
2019-01-02T03:16:52.587Z,96234.40
2019-01-02T03:19:23.489Z,96237.84
2019-01-02T03:21:54.408Z,96231.09
2019-01-02T03:24:25.307Z,96228.56
2019-01-02T03:26:54.935Z,96224.96
2019-01-02T03:29:24.108Z,96220.86
2019-01-02T03:31:55.049Z,96231.77
2019-01-02T03:34:25.958Z,96232.91
2019-01-02T03:36:55.142Z,96234.20
2019-01-02T03:39:32.033Z,96243.64
2019-01-02T03:42:01.222Z,96249.67
2019-01-02T03:44:30.451Z,96246.03
2019-01-02T03:46:59.629Z,96253.10
2019-01-02T03:49:28.806Z,96258.37
2019-01-02T03:51:58.004Z,96262.00
2019-01-02T03:54:27.537Z,96258.14
2019-01-02T03:56:56.747Z,96256.88
2019-01-02T03:59:25.923Z,96254.03
2019-01-02T04:01:55.102Z,96266.40
2019-01-02T04:04:24.301Z,96254.44
2019-01-02T04:06:53.773Z,96257.49
2019-01-02T04:09:22.975Z,96257.38
2019-01-02T04:11:52.152Z,96259.28
2019-01-02T04:14:21.331Z,96272.44
2019-01-02T04:16:50.525Z,96267.31
2019-01-02T04:19:19.695Z,96265.39
2019-01-02T04:21:48.889Z,96273.45
2019-01-02T04:24:37.142Z,96280.23
2019-01-02T04:27:06.356Z,96276.53
2019-01-02T04:29:35.523Z,96270.78
2019-01-02T04:32:04.723Z,96267.98
2019-01-02T04:34:33.945Z,96274.87
2019-01-02T04:37:03.126Z,96279.00
2019-01-02T04:39:32.340Z,96299.72
2019-01-02T04:42:01.517Z,96286.38
2019-01-02T04:44:30.723Z,96274.89
2019-01-02T04:46:59.907Z,96280.77
2019-01-02T04:49:29.097Z,96290.20
2019-01-02T04:51:58.311Z,96280.59
2019-01-02T04:54:27.497Z,96281.39
2019-01-02T04:56:56.701Z,96289.03
2019-01-02T04:59:25.881Z,96283.45
2019-01-02T05:01:55.059Z,96293.85
2019-01-02T05:04:24.258Z,96290.83
2019-01-02T05:06:53.435Z,96313.61
2019-01-02T05:09:22.621Z,96319.09
2019-01-02T05:11:51.795Z,96317.25
2019-01-02T05:14:20.997Z,96317.78
2019-01-02T05:16:50.559Z,96338.24
2019-01-02T05:19:19.774Z,96337.95
2019-01-02T05:21:48.957Z,96318.83
2019-01-02T05:24:19.456Z,96330.23
2019-01-02T05:27:08.497Z,96335.33
2019-01-02T05:32:27.534Z,96350.00
2019-01-02T05:34:56.712Z,96354.74
2019-01-02T05:37:25.914Z,96360.23
2019-01-02T05:39:55.092Z,96345.70
2019-01-02T05:42:24.293Z,96341.46
2019-01-02T05:44:53.470Z,96338.23
2019-01-02T05:47:22.707Z,96331.66
2019-01-02T05:49:51.883Z,96333.35
2019-01-02T05:52:21.507Z,96341.73
2019-01-02T05:54:50.720Z,96346.23
2019-01-02T05:57:20.261Z,96348.25
2019-01-02T05:59:49.463Z,96346.11
2019-01-02T06:02:18.648Z,96355.93
2019-01-02T06:04:48.211Z,96361.30
2019-01-02T06:07:17.390Z,96349.80
2019-01-02T06:09:46.570Z,96349.98
2019-01-02T06:12:16.110Z,96341.08
2019-01-02T06:14:45.573Z,96349.13
2019-01-02T06:17:15.120Z,96339.22
2019-01-02T06:19:44.293Z,96342.64
2019-01-02T06:22:13.802Z,96337.83
2019-01-02T06:24:43.009Z,96341.96
2019-01-02T06:27:12.186Z,96330.91
2019-01-02T06:29:41.707Z,96336.02
2019-01-02T06:32:10.905Z,96325.05
2019-01-02T06:34:40.113Z,96324.50
2019-01-02T06:37:09.289Z,96327.00
2019-01-02T06:39:38.462Z,96325.30
2019-01-02T06:42:07.663Z,96324.81
2019-01-02T06:44:36.835Z,96324.50
2019-01-02T06:47:06.044Z,96330.91
2019-01-02T06:49:35.216Z,96314.63
2019-01-02T06:52:04.396Z,96320.30
2019-01-02T06:54:33.594Z,96314.40
2019-01-02T06:57:02.780Z,96332.36
2019-01-02T06:59:31.997Z,96320.92
2019-01-02T07:02:01.166Z,96325.30
2019-01-02T07:04:30.412Z,96321.36
2019-01-02T07:06:59.599Z,96334.17
2019-01-02T07:09:28.789Z,96336.25
2019-01-02T07:11:58.392Z,96341.61
2019-01-02T07:14:27.897Z,96344.02
2019-01-02T07:16:58.047Z,96345.98
2019-01-02T07:19:28.030Z,96347.20
2019-01-02T07:21:57.221Z,96351.03
2019-01-02T07:24:26.727Z,96346.34
2019-01-02T07:26:55.894Z,96345.98
2019-01-02T07:29:25.106Z,96352.31
2019-01-02T07:31:54.319Z,96343.56
2019-01-02T07:35:01.650Z,96354.61
2019-01-02T07:38:08.905Z,96358.45
2019-01-02T07:41:16.489Z,96363.52
2019-01-02T07:44:23.753Z,96368.94
2019-01-02T07:47:31.032Z,96362.41
2019-01-02T07:50:38.281Z,96364.92
2019-01-02T07:53:40.517Z,96364.25
2019-01-02T07:56:48.078Z,96380.50
2019-01-02T07:59:55.375Z,96368.75
2019-01-02T08:02:53.855Z,96379.52
2019-01-02T08:06:01.391Z,96396.59
2019-01-02T08:09:08.669Z,96388.19
2019-01-02T08:12:16.121Z,96385.27
2019-01-02T08:15:23.401Z,96392.77
2019-01-02T08:18:30.691Z,96389.41
2019-01-02T08:37:42.738Z,96393.31
2019-01-02T08:40:54.174Z,96383.02
2019-01-02T08:47:57.287Z,96414.30
2019-01-02T08:55:01.143Z,96418.44
2019-01-02T08:58:08.421Z,96419.61
2019-01-02T09:01:13.949Z,96416.80
2019-01-02T09:04:08.600Z,96425.43
2019-01-02T09:07:04.591Z,96415.65
2019-01-02T09:10:11.905Z,96431.36
2019-01-02T09:13:19.156Z,96435.95
2019-01-02T09:16:26.483Z,96439.60
2019-01-02T09:22:36.027Z,96447.97
2019-01-02T09:26:02.237Z,96448.69
2019-01-02T09:29:09.514Z,96457.85
2019-01-02T09:32:03.536Z,96461.19
2019-01-02T09:35:10.851Z,96461.08
2019-01-02T09:38:18.107Z,96456.02
2019-01-02T09:41:25.385Z,96443.52
2019-01-02T09:44:32.641Z,96458.14
2019-01-02T09:47:39.925Z,96457.34
2019-01-02T09:50:33.140Z,96458.75
2019-01-02T09:53:40.425Z,96460.72
2019-01-02T09:56:47.680Z,96459.06
2019-01-02T09:59:54.973Z,96463.51
2019-01-02T10:02:53.676Z,96470.94
2019-01-02T10:06:01.156Z,96466.25
2019-01-02T10:09:08.406Z,96476.23
2019-01-02T10:12:15.694Z,96475.38
2019-01-02T10:15:22.963Z,96472.06
2019-01-02T10:18:30.248Z,96474.11
2019-01-02T10:21:37.563Z,96471.28
2019-01-02T10:24:44.815Z,96476.79
2019-01-02T10:27:52.097Z,96469.07
2019-01-02T10:30:59.396Z,96472.69
2019-01-02T10:37:32.987Z,96447.22
2019-01-02T10:40:40.305Z,96468.97
2019-01-02T10:43:47.793Z,96455.13
2019-01-02T10:46:55.096Z,96456.08
2019-01-02T10:50:02.355Z,96451.13
2019-01-02T10:53:09.633Z,96449.94
2019-01-02T10:56:16.948Z,96445.30
2019-01-02T10:59:24.160Z,96435.60
2019-01-02T11:02:32.010Z,96442.80
2019-01-02T11:32:00.867Z,96413.32
2019-01-02T11:34:53.265Z,96408.34
2019-01-02T11:49:48.990Z,96382.07
2019-01-02T11:52:18.199Z,96365.91
2019-01-02T11:54:47.546Z,96367.91
2019-01-02T11:57:16.778Z,96361.47
2019-01-02T11:59:46.028Z,96348.11
2019-01-02T12:02:15.624Z,96357.66
2019-01-02T12:04:44.870Z,96351.84
2019-01-02T12:07:14.105Z,96355.61
2019-01-02T12:09:43.338Z,96365.77
2019-01-02T12:14:47.934Z,96357.81
2019-01-02T12:17:17.631Z,96357.96
2019-01-02T12:19:46.992Z,96365.30
2019-01-02T12:22:16.194Z,96361.80
2019-01-02T12:24:45.370Z,96356.02
2019-01-02T12:27:14.583Z,96360.37
2019-01-02T12:29:43.780Z,96349.03
2019-01-02T12:32:12.977Z,96351.75
2019-01-02T12:34:42.796Z,96364.98
2019-01-02T12:37:12.007Z,96356.44
2019-01-02T12:39:41.193Z,96343.98
2019-01-02T12:42:22.462Z,96340.30
2019-01-02T12:44:41.289Z,96330.97
2019-01-02T12:47:10.486Z,96327.63
2019-01-02T12:49:39.665Z,96338.16
2019-01-02T12:52:08.857Z,96346.98
2019-01-02T12:54:38.058Z,96336.09
2019-01-02T12:57:07.257Z,96333.03
2019-01-02T12:59:36.543Z,96340.66
2019-01-02T13:06:11.839Z,96324.36
2019-01-02T13:09:19.115Z,96314.02
2019-01-02T13:12:26.652Z,96310.05
2019-01-02T13:15:33.905Z,96310.13
2019-01-02T13:18:26.774Z,96306.77
2019-01-02T13:21:34.035Z,96307.25
2019-01-02T13:24:25.701Z,96310.25
2019-01-02T13:27:17.817Z,96314.63
2019-01-02T13:30:21.036Z,96313.98
2019-01-02T13:33:28.312Z,96308.26
2019-01-02T13:36:30.042Z,96309.02
2019-01-02T13:39:44.040Z,96329.34
2019-01-02T13:42:51.310Z,96332.88
2019-01-02T13:45:58.592Z,96325.69
2019-01-02T13:48:51.236Z,96316.10
2019-01-02T13:51:33.636Z,96313.28
2019-01-02T13:54:02.836Z,96317.28
2019-01-02T13:57:13.440Z,96329.95
2019-01-02T13:59:42.655Z,96336.84
2019-01-02T14:02:11.821Z,96332.47
2019-01-02T14:04:44.596Z,96339.47
2019-01-02T14:07:13.853Z,96334.69
2019-01-02T14:09:43.060Z,96342.28
2019-01-02T14:12:12.238Z,96333.25
2019-01-02T14:14:41.463Z,96336.99
2019-01-02T14:17:10.640Z,96332.12
2019-01-02T14:19:39.854Z,96338.55
2019-01-02T14:22:28.017Z,96336.00
2019-01-02T14:24:57.221Z,96348.47
2019-01-02T14:27:26.449Z,96349.46
2019-01-02T14:29:55.645Z,96344.17
2019-01-02T14:32:24.842Z,96360.05
2019-01-02T14:34:54.021Z,96366.34
2019-01-02T14:37:23.214Z,96378.05
2019-01-02T14:39:52.727Z,96371.49
2019-01-02T14:42:21.936Z,96370.32
2019-01-02T14:44:51.101Z,96383.84
2019-01-02T14:47:20.296Z,96384.72
2019-01-02T14:49:49.475Z,96390.78
2019-01-02T14:52:18.690Z,96389.95
2019-01-02T14:54:48.228Z,96403.16
2019-01-02T14:57:17.398Z,96401.84
2019-01-02T14:59:46.608Z,96402.83
2019-01-02T15:02:15.778Z,96402.27
2019-01-02T15:04:44.973Z,96401.77
2019-01-02T15:07:14.516Z,96402.33
2019-01-02T15:10:23.830Z,96403.20
2019-01-02T15:12:52.995Z,96398.98
2019-01-02T15:15:22.185Z,96423.56
2019-01-02T15:17:51.364Z,96433.30
2019-01-02T15:20:20.556Z,96444.20
2019-01-02T15:22:49.733Z,96437.98
2019-01-02T15:25:18.930Z,96442.05
2019-01-02T15:27:48.107Z,96448.09
2019-01-02T15:30:17.326Z,96459.56
2019-01-02T15:32:46.502Z,96473.56
2019-01-02T15:35:15.696Z,96473.33
2019-01-02T15:37:44.868Z,96476.68
2019-01-02T15:40:14.065Z,96483.66
2019-01-02T15:42:43.235Z,96490.23
2019-01-02T15:45:12.433Z,96492.36
2019-01-02T15:47:41.611Z,96502.13
2019-01-02T15:50:11.914Z,96505.81
2019-01-02T15:52:41.097Z,96506.48
2019-01-02T15:55:10.309Z,96519.30
2019-01-02T15:57:39.478Z,96536.11
2019-01-02T16:03:07.184Z,96551.03
2019-01-02T16:05:36.666Z,96573.69
2019-01-02T16:08:05.839Z,96599.00
2019-01-02T16:10:35.033Z,96612.20
2019-01-02T16:13:04.205Z,96619.26
2019-01-02T16:15:33.411Z,96617.80
2019-01-02T16:18:02.959Z,96597.09
2019-01-02T16:20:32.160Z,96623.28
2019-01-02T16:23:01.331Z,96624.67
2019-01-02T16:25:30.532Z,96623.98
2019-01-02T16:28:00.070Z,96630.06
2019-01-02T16:30:29.277Z,96633.34
2019-01-02T16:32:58.448Z,96634.38
2019-01-02T16:35:27.960Z,96632.02
2019-01-02T16:37:57.133Z,96623.02
2019-01-02T16:40:26.332Z,96631.11
2019-01-02T16:42:55.499Z,96632.34
2019-01-02T16:45:24.817Z,96638.72
2019-01-02T16:47:53.984Z,96647.90
2019-01-02T16:50:23.179Z,96639.88
2019-01-02T16:52:52.354Z,96650.02
2019-01-02T16:55:21.549Z,96656.59
2019-01-02T16:57:50.725Z,96662.66
2019-01-02T17:00:19.899Z,96658.95
2019-01-02T17:02:49.096Z,96665.66
2019-01-02T17:05:18.310Z,96662.61
2019-01-02T17:07:47.493Z,96672.38
2019-01-02T17:10:16.665Z,96673.58
2019-01-02T17:12:46.235Z,96681.52
2019-01-02T17:15:15.405Z,96683.66
2019-01-02T17:17:44.602Z,96689.82
2019-01-02T17:23:22.379Z,96695.42
2019-01-02T17:25:51.524Z,96702.21
2019-01-02T17:28:20.740Z,96702.46
2019-01-02T17:30:49.908Z,96706.41
2019-01-02T17:33:19.103Z,96708.50
2019-01-02T17:35:48.271Z,96709.88
2019-01-02T17:38:17.835Z,96716.97
2019-01-02T17:40:47.010Z,96709.52
2019-01-02T17:43:16.230Z,96712.70
2019-01-02T17:45:45.402Z,96722.89
2019-01-02T17:48:14.582Z,96730.06
2019-01-02T17:50:44.140Z,96728.19
2019-01-02T17:53:13.320Z,96734.53
2019-01-02T17:55:42.514Z,96741.16
2019-01-02T17:58:11.680Z,96743.72
2019-01-02T18:00:41.212Z,96743.86
2019-01-02T18:03:10.404Z,96747.59
2019-01-02T18:05:39.604Z,96761.27
2019-01-02T18:08:08.780Z,96762.00
2019-01-02T18:10:37.972Z,96768.41
2019-01-02T18:13:07.144Z,96766.91
2019-01-02T18:15:36.717Z,96772.61
2019-01-02T18:18:05.886Z,96775.93
2019-01-02T18:20:35.136Z,96774.97
2019-01-02T18:23:04.314Z,96784.03
2019-01-02T18:25:33.845Z,96786.70
2019-01-02T18:28:03.029Z,96791.19
2019-01-02T18:30:32.246Z,96795.77
2019-01-02T18:33:01.420Z,96793.45
2019-01-02T18:35:30.915Z,96796.97
2019-01-02T18:38:00.083Z,96796.28
2019-01-02T18:40:29.281Z,96794.98
2019-01-02T18:42:58.495Z,96804.49
2019-01-02T18:45:27.668Z,96807.69
2019-01-02T18:47:56.874Z,96807.90
2019-01-02T18:50:26.044Z,96820.27
2019-01-02T18:52:55.216Z,96819.23
2019-01-02T18:55:24.802Z,96814.22
2019-01-02T18:57:54.097Z,96816.16
2019-01-02T19:00:23.271Z,96810.76
2019-01-02T19:02:52.465Z,96812.71
2019-01-02T19:05:21.643Z,96820.10
2019-01-02T19:07:50.815Z,96825.65
2019-01-02T19:10:39.007Z,96823.94
2019-01-02T19:13:08.208Z,96825.55
2019-01-02T19:15:37.732Z,96828.25
2019-01-02T19:18:06.913Z,96824.31
2019-01-02T19:20:36.115Z,96832.13
2019-01-02T19:23:05.316Z,96831.52
2019-01-02T19:25:34.539Z,96835.66
2019-01-02T19:28:03.711Z,96839.03
2019-01-02T19:30:32.915Z,96839.08
2019-01-02T19:33:02.127Z,96841.55
2019-01-02T19:35:31.301Z,96838.78
2019-01-02T19:38:00.550Z,96838.95
2019-01-02T19:40:30.099Z,96850.94
2019-01-02T19:42:59.311Z,96848.25
2019-01-02T19:45:28.491Z,96844.71
2019-01-02T19:47:57.806Z,96846.32
2019-01-02T19:50:26.982Z,96853.34
2019-01-02T19:52:56.611Z,96851.98
2019-01-02T19:55:26.248Z,96848.70
2019-01-02T19:57:55.426Z,96858.66
2019-01-02T20:00:24.627Z,96854.36
2019-01-02T20:02:53.811Z,96859.38
2019-01-02T20:05:23.323Z,96857.91
2019-01-02T20:07:52.504Z,96856.84
2019-01-02T20:10:21.675Z,96862.86
2019-01-02T20:12:51.226Z,96859.20
2019-01-02T20:15:20.398Z,96860.86
2019-01-02T20:17:49.972Z,96854.84
2019-01-02T20:20:19.157Z,96863.54
2019-01-02T20:22:48.634Z,96864.00
2019-01-02T20:25:17.835Z,96865.80
2019-01-02T20:27:47.017Z,96865.52
2019-01-02T20:30:17.043Z,96873.58
2019-01-02T20:32:46.296Z,96877.09
2019-01-02T20:35:15.539Z,96876.91
2019-01-02T20:37:45.043Z,96870.67
2019-01-02T20:40:14.234Z,96862.80
2019-01-02T20:42:43.408Z,96871.88
2019-01-02T20:45:12.610Z,96860.95
2019-01-02T20:47:47.831Z,96862.05
2019-01-02T20:50:12.703Z,96860.94
2019-01-02T20:52:41.923Z,96866.03
2019-01-02T20:55:11.106Z,96864.44
2019-01-02T20:57:40.281Z,96859.78
2019-01-02T21:00:11.741Z,96858.64
2019-01-02T21:02:40.920Z,96860.77
2019-01-02T21:05:10.415Z,96853.76
2019-01-02T21:07:39.633Z,96857.55
2019-01-02T21:10:09.973Z,96851.55
2019-01-02T21:12:39.150Z,96852.83
2019-01-02T21:15:09.035Z,96858.61
2019-01-02T21:17:38.249Z,96855.56
2019-01-02T21:20:47.598Z,96855.45
2019-01-02T21:23:16.765Z,96855.14
2019-01-02T21:25:45.941Z,96850.49
2019-01-02T21:28:15.147Z,96864.61
2019-01-02T21:30:44.579Z,96857.48
2019-01-02T21:33:14.037Z,96860.24
2019-01-02T21:35:43.242Z,96867.30
2019-01-02T21:38:12.442Z,96857.23
2019-01-02T21:40:41.645Z,96856.30
2019-01-02T21:43:29.813Z,96858.67
2019-01-02T21:45:59.024Z,96852.83
2019-01-02T21:48:28.210Z,96858.55
2019-01-02T21:50:57.379Z,96857.69
2019-01-02T21:53:26.838Z,96858.36
2019-01-02T21:55:56.007Z,96863.00
2019-01-02T21:58:26.326Z,96863.58
2019-01-02T22:00:56.540Z,96861.84
2019-01-02T22:03:26.013Z,96856.80
2019-01-02T22:05:55.210Z,96856.30
2019-01-02T22:08:24.829Z,96859.95
2019-01-02T22:10:54.041Z,96856.97
2019-01-02T22:13:23.229Z,96861.19
2019-01-02T22:15:52.405Z,96856.19
2019-01-02T22:18:21.608Z,96857.90
2019-01-02T22:20:50.784Z,96859.83
2019-01-02T22:23:20.009Z,96859.37
2019-01-02T22:25:49.534Z,96860.41
2019-01-02T22:28:18.711Z,96865.59
2019-01-02T22:30:48.385Z,96864.89
2019-01-02T22:33:17.558Z,96872.80
2019-01-02T22:35:46.760Z,96873.65
2019-01-02T22:38:15.954Z,96872.26
2019-01-02T22:40:45.148Z,96876.48
2019-01-02T22:43:14.361Z,96869.98
2019-01-02T22:45:43.533Z,96871.41
2019-01-02T22:48:12.786Z,96877.68
2019-01-02T22:50:41.949Z,96878.37
2019-01-02T22:53:30.455Z,96878.30
2019-01-02T22:55:59.629Z,96878.18
2019-01-02T22:58:28.817Z,96881.70
2019-01-02T23:04:12.627Z,96888.52
2019-01-02T23:07:00.768Z,96884.29
2019-01-02T23:09:48.882Z,96882.13
2019-01-02T23:12:37.037Z,96887.66
2019-01-02T23:15:25.213Z,96885.86
2019-01-02T23:18:13.320Z,96891.81
2019-01-02T23:21:01.451Z,96884.83
2019-01-02T23:23:49.560Z,96900.97
2019-01-02T23:26:37.695Z,96901.42
2019-01-02T23:29:25.805Z,96904.66
2019-01-02T23:32:13.948Z,96912.74
2019-01-02T23:35:02.075Z,96907.14
2019-01-02T23:37:50.214Z,96907.28
2019-01-02T23:40:38.593Z,96910.05
2019-01-02T23:43:26.730Z,96916.05
2019-01-02T23:46:14.839Z,96923.17
2019-01-02T23:49:03.316Z,96923.42
2019-01-02T23:51:51.697Z,96926.48
2019-01-02T23:54:39.862Z,96926.30
2019-01-02T23:57:27.968Z,96930.98
